Time;durP1;ratioP1;P1;durP2;ratioP2;P2;SDS_P1;SDS_P2;PMS_P1;PMS_P2;Temp;Humidity;BMP_temperature;BMP_pressure;BME280_temperature;BME280_humidity;BME280_pressure;Samples;Min_cycle;Max_cycle;Signal;HPM_P1;HPM_P2
2023/08/25 00:02:18;;;;;;;6.95;2.40;;;;;;;18.02;100.00;100983.41;5099209;28;20521;-68
2023/08/25 00:04:43;;;;;;;6.95;2.10;;;;;;;18.07;100.00;100986.22;5097879;28;20016;-68
2023/08/25 00:07:09;;;;;;;4.57;2.30;;;;;;;18.05;100.00;100982.94;5095952;28;20032;-68
2023/08/25 00:09:34;;;;;;;8.88;2.30;;;;;;;18.02;100.00;100982.59;5100806;28;20055;-72
2023/08/25 00:11:59;;;;;;;7.43;2.80;;;;;;;18.00;100.00;100979.28;5106400;28;20048;-68
2023/08/25 00:14:25;;;;;;;5.90;2.20;;;;;;;17.99;100.00;100969.47;5105719;28;20091;-69
2023/08/25 00:16:51;;;;;;;7.55;2.47;;;;;;;17.96;100.00;100964.50;5105551;28;20027;-68
2023/08/25 00:19:17;;;;;;;9.63;2.63;;;;;;;17.91;100.00;100973.38;5103466;28;20030;-68
2023/08/25 00:21:43;;;;;;;8.27;2.78;;;;;;;17.88;100.00;100968.47;5084084;28;20046;-68
2023/08/25 00:24:09;;;;;;;9.88;3.00;;;;;;;17.96;100.00;100973.50;5102492;28;20024;-69
2023/08/25 00:26:35;;;;;;;10.07;3.30;;;;;;;17.95;100.00;100968.31;5103877;28;20028;-68
2023/08/25 00:29:00;;;;;;;9.82;2.95;;;;;;;17.98;100.00;100971.38;5102596;28;20048;-68
2023/08/25 00:31:25;;;;;;;11.07;3.10;;;;;;;18.00;100.00;100971.09;5083754;28;20051;-69
2023/08/25 00:33:51;;;;;;;8.07;2.97;;;;;;;17.97;100.00;100950.63;5100834;28;20028;-69
2023/08/25 00:36:17;;;;;;;10.93;3.63;;;;;;;18.13;100.00;100968.09;5102105;28;20024;-69
2023/08/25 00:38:42;;;;;;;10.52;3.53;;;;;;;18.14;100.00;100964.28;5106012;28;20028;-68
2023/08/25 00:41:08;;;;;;;9.18;3.20;;;;;;;18.13;100.00;100965.34;5104475;28;20028;-69
2023/08/25 00:43:34;;;;;;;5.63;2.78;;;;;;;17.98;100.00;100940.56;5103977;28;20024;-70
2023/08/25 00:46:01;;;;;;;12.10;3.10;;;;;;;17.81;100.00;100957.72;5110215;28;20028;-69
2023/08/25 00:48:28;;;;;;;9.73;3.20;;;;;;;17.76;100.00;100959.47;5105217;28;20020;-68
2023/08/25 00:50:54;;;;;;;10.23;3.08;;;;;;;17.81;100.00;100941.38;5109449;28;20052;-69
2023/08/25 00:53:21;;;;;;;7.65;3.08;;;;;;;18.03;100.00;100946.94;5098560;28;20042;-68
2023/08/25 00:55:46;;;;;;;12.02;3.28;;;;;;;18.00;100.00;100922.09;5097755;28;20035;-68
2023/08/25 00:58:14;;;;;;;12.88;3.97;;;;;;;18.07;100.00;100930.94;5097679;28;20147;-68
2023/08/25 01:00:40;;;;;;;12.75;4.20;;;;;;;18.07;100.00;100939.09;5096405;28;20460;-68
2023/08/25 01:03:06;;;;;;;12.88;3.78;;;;;;;18.05;100.00;100936.63;5096523;28;20054;-68
2023/08/25 01:05:31;;;;;;;12.63;3.47;;;;;;;17.92;100.00;100898.84;5097249;28;20036;-68
2023/08/25 01:07:57;;;;;;;10.15;3.85;;;;;;;18.05;100.00;100923.03;5095518;28;20036;-68
2023/08/25 01:10:31;;;;;;;9.50;3.92;;;;;;;18.06;100.00;100919.22;5095189;28;20543;-68
2023/08/25 01:13:10;;;;;;;8.77;3.83;;;;;;;17.91;100.00;100894.44;5096787;28;20016;-68
2023/08/25 01:15:41;;;;;;;14.73;4.30;;;;;;;17.90;100.00;100911.03;5096236;28;20361;-68
2023/08/25 01:18:15;;;;;;;14.95;3.85;;;;;;;17.82;100.00;100896.75;5093356;28;20050;-67
2023/08/25 01:20:41;;;;;;;11.15;3.45;;;;;;;17.69;100.00;100888.88;5094905;28;20069;-68
2023/08/25 01:23:30;;;;;;;8.60;3.53;;;;;;;17.67;100.00;100888.28;5095801;28;20028;-68
2023/08/25 01:25:57;;;;;;;8.65;3.70;;;;;;;17.80;100.00;100893.44;5096098;28;20050;-67
2023/08/25 01:28:25;;;;;;;7.68;2.90;;;;;;;17.76;100.00;100870.50;5096105;28;20056;-67
2023/08/25 01:30:54;;;;;;;11.10;3.53;;;;;;;17.71;100.00;100880.44;5096707;28;20530;-68
2023/08/25 01:33:20;;;;;;;8.27;3.15;;;;;;;17.57;100.00;100867.13;5078656;28;20044;-68
2023/08/25 01:35:48;;;;;;;9.73;3.40;;;;;;;17.63;100.00;100867.25;5095333;28;20085;-67
2023/08/25 01:38:20;;;;;;;10.25;3.20;;;;;;;17.53;100.00;100857.81;5096759;28;20061;-67
2023/08/25 01:41:00;;;;;;;12.98;3.72;;;;;;;17.50;100.00;100849.31;5096830;28;20024;-68
2023/08/25 01:43:32;;;;;;;13.40;3.67;;;;;;;17.28;100.00;100833.66;5095908;28;20024;-67
2023/08/25 01:45:59;;;;;;;15.88;3.63;;;;;;;17.53;100.00;100846.94;5095165;28;20073;-67
2023/08/25 01:48:26;;;;;;;7.55;3.40;;;;;;;17.65;100.00;100854.19;5095313;28;20027;-67
2023/08/25 01:50:52;;;;;;;13.27;3.70;;;;;;;17.76;100.00;100853.34;5096783;28;20040;-67
2023/08/25 01:53:18;;;;;;;10.48;3.80;;;;;;;17.76;100.00;100850.59;5095572;28;20028;-68
2023/08/25 01:55:44;;;;;;;13.35;4.07;;;;;;;17.78;100.00;100843.03;5095209;28;20047;-68
2023/08/25 01:58:09;;;;;;;5.88;3.30;;;;;;;17.83;100.00;100843.13;5095428;28;20102;-68
2023/08/25 02:00:35;;;;;;;11.27;3.58;;;;;;;17.86;100.00;100836.38;5095823;28;20097;-68
2023/08/25 02:03:00;;;;;;;10.43;3.53;;;;;;;17.81;100.00;100827.06;5096036;28;20020;-68
2023/08/25 02:05:26;;;;;;;13.45;3.40;;;;;;;17.59;100.00;100798.88;5094750;28;20039;-68
2023/08/25 02:07:51;;;;;;;7.20;3.53;;;;;;;17.79;100.00;100829.19;5078268;28;20495;-68
2023/08/25 02:10:16;;;;;;;10.43;3.55;;;;;;;17.84;100.00;100829.25;5095275;28;20421;-68
2023/08/25 02:12:42;;;;;;;13.25;4.00;;;;;;;17.76;100.00;100805.19;5094974;28;20043;-68
2023/08/25 02:15:08;;;;;;;10.20;3.75;;;;;;;17.84;100.00;100812.94;5096398;28;20028;-68
2023/08/25 02:17:33;;;;;;;8.07;3.20;;;;;;;17.78;100.00;100807.66;5096056;28;20036;-68
2023/08/25 02:19:58;;;;;;;10.55;3.53;;;;;;;17.72;100.00;100806.72;5094914;28;20028;-67
2023/08/25 02:22:24;;;;;;;10.25;3.25;;;;;;;17.70;100.00;100806.13;5096028;28;20082;-67
2023/08/25 02:24:50;;;;;;;11.02;3.45;;;;;;;17.63;100.00;100789.16;5096586;28;20100;-67
2023/08/25 02:27:15;;;;;;;11.75;4.00;;;;;;;17.53;100.00;100786.25;5094705;28;20415;-68
2023/08/25 02:29:41;;;;;;;11.07;3.85;;;;;;;17.46;100.00;100782.88;5077808;28;20028;-67
2023/08/25 02:32:06;;;;;;;9.05;3.58;;;;;;;17.50;100.00;100793.00;5095983;28;20063;-68
2023/08/25 02:34:31;;;;;;;11.77;4.10;;;;;;;17.52;100.00;100807.22;5095802;28;20039;-68
2023/08/25 02:36:57;;;;;;;6.43;3.17;;;;;;;17.67;100.00;100814.78;5095771;28;20494;-67
2023/08/25 02:39:22;;;;;;;10.93;3.50;;;;;;;17.78;100.00;100819.38;5094533;28;20123;-68
2023/08/25 02:41:47;;;;;;;9.65;3.80;;;;;;;17.82;100.00;100819.72;5095638;28;20031;-68
2023/08/25 02:44:13;;;;;;;10.65;3.88;;;;;;;17.88;100.00;100823.31;5092814;28;20066;-67
2023/08/25 02:46:39;;;;;;;7.45;3.60;;;;;;;17.77;100.00;100804.09;5090206;28;20501;-67
2023/08/25 02:49:05;;;;;;;10.50;4.30;;;;;;;17.80;100.00;100800.06;5077379;28;20024;-68
2023/08/25 02:51:30;;;;;;;13.90;4.93;;;;;;;17.74;100.00;100801.84;5094979;28;20044;-68
2023/08/25 02:53:56;;;;;;;16.02;7.78;;;;;;;17.67;100.00;100803.91;5094273;28;20069;-68
2023/08/25 02:56:21;;;;;;;9.82;5.25;;;;;;;17.48;100.00;100783.44;5078814;28;20024;-68
2023/08/25 02:58:46;;;;;;;10.07;5.20;;;;;;;17.68;100.00;100804.72;5093960;28;20024;-68
2023/08/25 03:01:12;;;;;;;10.32;5.22;;;;;;;17.77;100.00;100806.00;5077141;28;20062;-68
2023/08/25 03:03:38;;;;;;;11.57;5.63;;;;;;;17.72;100.00;100795.84;5095375;28;20242;-67
2023/08/25 03:06:04;;;;;;;12.50;6.65;;;;;;;17.65;100.00;100787.03;5095170;28;20042;-68
2023/08/25 03:08:29;;;;;;;16.05;8.05;;;;;;;17.60;100.00;100779.56;5077194;28;20056;-68
2023/08/25 03:10:54;;;;;;;18.75;10.23;;;;;;;17.55;100.00;100784.94;5094731;28;20127;-68
2023/08/25 03:13:20;;;;;;;16.15;9.55;;;;;;;17.56;100.00;100789.31;5076977;28;20028;-68
2023/08/25 03:15:48;;;;;;;18.45;8.55;;;;;;;17.61;100.00;100777.69;5095404;28;20028;-67
2023/08/25 03:18:14;;;;;;;12.32;6.45;;;;;;;17.62;100.00;100773.91;5097315;28;20387;-67
2023/08/25 03:20:39;;;;;;;15.70;5.40;;;;;;;17.44;100.00;100761.34;5098199;28;20398;-68
2023/08/25 03:23:05;;;;;;;11.70;4.15;;;;;;;17.44;100.00;100774.13;5099118;28;20045;-68
2023/08/25 03:25:30;;;;;;;13.77;4.13;;;;;;;17.58;100.00;100780.88;5098194;28;20046;-67
2023/08/25 03:27:57;;;;;;;7.90;4.25;;;;;;;17.59;100.00;100768.97;5080582;28;20028;-68
2023/08/25 03:30:22;;;;;;;11.40;3.05;;;;;;;17.61;100.00;100775.81;5098915;28;20039;-68
2023/08/25 03:32:47;;;;;;;8.02;2.50;;;;;;;17.57;100.00;100771.91;5098873;28;20027;-68
2023/08/25 03:35:13;;;;;;;9.27;2.50;;;;;;;17.35;100.00;100769.09;5097963;28;20028;-68
2023/08/25 03:37:38;;;;;;;6.22;2.63;;;;;;;17.30;100.00;100760.00;5097666;28;20032;-68
2023/08/25 03:40:04;;;;;;;9.52;2.78;;;;;;;17.27;100.00;100755.88;5097930;28;20047;-68
2023/08/25 03:42:30;;;;;;;9.38;2.70;;;;;;;17.22;100.00;100750.38;5097311;28;20072;-68
2023/08/25 03:44:55;;;;;;;6.85;2.45;;;;;;;17.00;100.00;100733.91;5098881;28;20058;-68
2023/08/25 03:47:21;;;;;;;5.82;2.47;;;;;;;16.93;100.00;100735.13;5063588;28;20165;-68
2023/08/25 03:49:46;;;;;;;8.32;2.42;;;;;;;16.93;100.00;100732.41;5097992;28;20036;-68
2023/08/25 03:52:11;;;;;;;6.15;2.30;;;;;;;16.89;100.00;100729.38;5095781;28;20093;-67
2023/08/25 03:54:37;;;;;;;9.90;2.10;;;;;;;17.13;100.00;100730.06;5096759;28;20118;-68
2023/08/25 03:57:06;;;;;;;5.03;2.05;;;;;;;17.01;100.00;100721.97;5098523;28;20098;-68
2023/08/25 03:59:31;;;;;;;3.58;2.00;;;;;;;17.07;100.00;100720.19;5098634;28;20036;-69
2023/08/25 04:01:57;;;;;;;6.00;2.08;;;;;;;17.08;100.00;100716.38;5080178;28;20047;-68
2023/08/25 04:04:22;;;;;;;6.10;1.98;;;;;;;17.11;100.00;100722.16;5096578;28;20028;-68
2023/08/25 04:06:47;;;;;;;6.55;2.00;;;;;;;17.09;100.00;100718.88;5080048;28;20020;-68
2023/08/25 04:09:13;;;;;;;9.77;2.10;;;;;;;16.91;100.00;100703.56;5096575;28;20032;-68
2023/08/25 04:11:38;;;;;;;6.03;2.22;;;;;;;16.94;100.00;100701.44;5097053;28;20032;-68
2023/08/25 04:14:04;;;;;;;8.45;2.20;;;;;;;16.80;100.00;100657.44;5096644;28;20120;-68
2023/08/25 04:16:29;;;;;;;6.25;2.20;;;;;;;16.93;100.00;100705.25;5079661;28;20035;-68
2023/08/25 04:18:55;;;;;;;8.73;2.08;;;;;;;16.97;100.00;100698.25;5098346;28;20049;-68
2023/08/25 04:21:20;;;;;;;8.60;2.10;;;;;;;17.12;100.00;100706.69;5098114;28;20036;-68
2023/08/25 04:23:45;;;;;;;5.25;2.30;;;;;;;17.00;100.00;100705.91;5096501;28;20119;-68
2023/08/25 04:26:11;;;;;;;6.80;2.33;;;;;;;17.10;100.00;100715.06;5098072;28;20483;-68
2023/08/25 04:28:36;;;;;;;6.63;2.35;;;;;;;17.12;100.00;100715.66;5095241;28;20115;-68
2023/08/25 04:31:02;;;;;;;6.00;1.98;;;;;;;16.87;100.00;100713.28;5096520;28;20081;-68
2023/08/25 04:33:27;;;;;;;7.50;2.33;;;;;;;16.95;100.00;100705.81;5096769;28;20491;-68
2023/08/25 04:35:52;;;;;;;5.68;1.90;;;;;;;17.04;100.00;100717.94;5096864;28;20040;-68
2023/08/25 04:38:18;;;;;;;7.35;2.33;;;;;;;17.14;100.00;100724.38;5096678;28;20032;-68
2023/08/25 04:40:43;;;;;;;7.63;2.42;;;;;;;17.22;100.00;100722.31;5094271;28;20032;-68
2023/08/25 04:43:09;;;;;;;8.90;2.30;;;;;;;16.96;100.00;100710.19;5094942;28;20036;-68
2023/08/25 04:45:34;;;;;;;7.68;2.33;;;;;;;17.05;100.00;100725.88;5096175;28;20031;-68
2023/08/25 04:47:59;;;;;;;5.70;2.20;;;;;;;16.99;100.00;100718.69;5095901;28;20375;-69
2023/08/25 04:50:25;;;;;;;6.30;2.25;;;;;;;16.94;100.00;100718.56;5097954;28;20032;-68
2023/08/25 04:52:51;;;;;;;7.68;2.40;;;;;;;16.69;100.00;100713.47;5098520;28;20051;-68
2023/08/25 04:55:17;;;;;;;7.55;2.42;;;;;;;16.45;100.00;100683.63;5099391;28;20539;-68
2023/08/25 04:57:42;;;;;;;6.47;2.42;;;;;;;16.60;100.00;100683.13;5099263;28;20024;-68
2023/08/25 05:00:08;;;;;;;7.15;2.25;;;;;;;16.47;100.00;100677.16;5083089;28;20042;-68
2023/08/25 05:02:34;;;;;;;4.95;2.38;;;;;;;16.42;100.00;100695.00;5068300;28;20078;-67
2023/08/25 05:05:01;;;;;;;9.07;2.30;;;;;;;16.43;100.00;100693.09;5102340;28;20028;-69
2023/08/25 05:07:27;;;;;;;8.07;2.85;;;;;;;16.32;100.00;100683.91;5103419;28;20058;-68
2023/08/25 05:09:53;;;;;;;8.13;2.72;;;;;;;16.19;100.00;100674.16;5102254;28;20035;-67
2023/08/25 05:12:19;;;;;;;7.65;2.58;;;;;;;16.18;100.00;100677.91;5100408;28;20122;-68
2023/08/25 05:14:44;;;;;;;5.25;2.28;;;;;;;16.12;100.00;100681.59;5100193;28;20051;-67
2023/08/25 05:17:10;;;;;;;9.32;2.42;;;;;;;16.26;100.00;100671.31;5063779;28;20077;-68
2023/08/25 05:19:35;;;;;;;5.55;2.33;;;;;;;16.26;100.00;100662.31;5094801;28;20036;-67
2023/08/25 05:22:01;;;;;;;7.82;2.50;;;;;;;16.27;100.00;100670.25;5078193;28;20035;-67
2023/08/25 05:24:27;;;;;;;5.72;2.38;;;;;;;16.33;100.00;100688.28;5078644;28;20429;-68
2023/08/25 05:26:53;;;;;;;6.35;2.50;;;;;;;16.31;100.00;100687.69;5104809;28;20045;-68
2023/08/25 05:29:27;;;;;;;8.82;2.75;;;;;;;16.37;100.00;100684.03;5115294;28;20077;-68
2023/08/25 05:31:54;;;;;;;4.97;2.17;;;;;;;16.12;100.00;100672.63;5118196;28;20032;-67
2023/08/25 05:34:19;;;;;;;8.07;2.55;;;;;;;16.25;100.00;100672.34;5117302;28;20026;-68
2023/08/25 05:36:45;;;;;;;7.28;3.17;;;;;;;16.36;100.00;100667.97;5117711;28;20462;-68
2023/08/25 05:39:12;;;;;;;5.85;2.50;;;;;;;16.22;100.00;100659.25;5111012;28;20020;-68
2023/08/25 05:41:37;;;;;;;6.28;2.40;;;;;;;16.15;100.00;100655.88;5097028;28;20032;-74
2023/08/25 05:44:03;;;;;;;4.38;2.20;;;;;;;16.12;100.00;100653.63;5094060;28;20020;-66
2023/08/25 05:46:30;;;;;;;8.25;2.25;;;;;;;15.88;100.00;100661.81;5097257;28;20035;-66
2023/08/25 05:48:56;;;;;;;5.75;2.65;;;;;;;15.91;100.00;100658.63;5098329;28;20016;-67
2023/08/25 05:51:23;;;;;;;8.45;2.75;;;;;;;16.01;100.00;100652.59;5100251;28;20040;-67
2023/08/25 05:53:49;;;;;;;6.47;2.72;;;;;;;16.06;100.00;100655.44;5100597;28;20031;-66
2023/08/25 05:56:14;;;;;;;5.40;2.30;;;;;;;16.01;100.00;100638.19;5080159;28;20059;-67
2023/08/25 05:58:41;;;;;;;7.20;2.28;;;;;;;16.14;100.00;100662.38;5098724;28;20016;-66
2023/08/25 06:01:06;;;;;;;6.10;2.30;;;;;;;15.87;100.00;100640.34;5095649;28;20044;-66
2023/08/25 06:03:32;;;;;;;4.75;2.17;;;;;;;16.07;100.00;100654.34;5093744;28;20059;-65
2023/08/25 06:05:57;;;;;;;5.45;1.88;;;;;;;15.93;100.00;100653.78;5094440;28;20028;-65
2023/08/25 06:08:23;;;;;;;5.57;2.10;;;;;;;15.65;100.00;100626.53;5094018;28;20040;-65
2023/08/25 06:10:54;;;;;;;3.58;1.67;;;;;;;15.85;100.00;100631.63;5094343;28;20487;-66
2023/08/25 06:13:19;;;;;;;5.18;2.00;;;;;;;15.68;100.00;100617.94;5095038;28;20123;-66
2023/08/25 06:15:45;;;;;;;4.35;1.88;;;;;;;15.90;100.00;100635.28;5092227;28;20451;-65
2023/08/25 06:18:10;;;;;;;5.50;1.80;;;;;;;15.74;100.00;100644.13;5090815;28;20062;-65
2023/08/25 06:20:38;;;;;;;4.70;1.90;;;;;;;15.86;100.00;100623.25;5093765;28;20032;-66
2023/08/25 06:23:04;;;;;;;3.25;1.60;;;;;;;15.86;100.00;100619.69;5094992;28;20028;-65
2023/08/25 06:25:30;;;;;;;4.10;1.90;;;;;;;15.84;100.00;100608.25;5092958;28;20038;-65
2023/08/25 06:27:55;;;;;;;5.25;1.80;;;;;;;15.46;100.00;100590.56;5093404;28;20036;-65
2023/08/25 06:30:23;;;;;;;5.72;2.00;;;;;;;15.81;100.00;100601.41;5095825;28;20024;-65
2023/08/25 06:32:49;;;;;;;5.00;1.92;;;;;;;15.70;100.00;100591.44;5095438;28;20214;-66
2023/08/25 06:35:15;;;;;;;4.22;1.50;;;;;;;15.46;100.00;100591.41;5091995;28;20154;-65
2023/08/25 06:37:40;;;;;;;5.88;1.48;;;;;;;15.61;100.00;100576.53;5096187;28;20469;-66
2023/08/25 06:40:10;;;;;;;5.47;1.73;;;;;;;15.71;100.00;100579.50;5095630;28;20097;-66
2023/08/25 06:42:37;;;;;;;5.18;1.95;;;;;;;15.77;100.00;100570.41;5096232;28;20050;-68
2023/08/25 06:45:05;;;;;;;4.32;1.60;;;;;;;15.63;100.00;100552.69;5095913;28;20035;-65
2023/08/25 06:47:31;;;;;;;3.78;1.70;;;;;;;15.61;100.00;100557.56;5095971;28;20039;-66
2023/08/25 06:49:57;;;;;;;6.15;2.10;;;;;;;15.70;100.00;100565.13;5097536;28;20555;-66
2023/08/25 06:52:22;;;;;;;6.35;1.50;;;;;;;15.62;100.00;100572.75;5099948;28;20079;-66
2023/08/25 06:54:48;;;;;;;3.90;1.70;;;;;;;15.76;100.00;100557.06;5101392;28;20471;-65
2023/08/25 06:57:13;;;;;;;5.38;1.63;;;;;;;15.65;100.00;100548.69;5103384;28;20026;-66
2023/08/25 06:59:38;;;;;;;4.70;2.33;;;;;;;15.79;100.00;100534.91;5098332;28;20019;-65
2023/08/25 07:02:04;;;;;;;5.05;1.55;;;;;;;15.91;100.00;100539.22;5100348;28;20663;-66
2023/08/25 07:04:30;;;;;;;5.10;1.73;;;;;;;15.96;100.00;100546.66;5091883;28;20672;-65
2023/08/25 07:06:55;;;;;;;3.50;1.80;;;;;;;16.05;100.00;100538.94;5096450;28;20035;-70
2023/08/25 07:09:21;;;;;;;4.82;1.63;;;;;;;16.16;100.00;100538.91;5099583;28;20139;-67
2023/08/25 07:11:46;;;;;;;4.20;1.45;;;;;;;15.97;100.00;100540.97;5099412;28;20028;-65
2023/08/25 07:14:12;;;;;;;5.72;1.70;;;;;;;15.73;100.00;100536.69;5098531;28;20058;-66
2023/08/25 07:16:37;;;;;;;4.70;1.45;;;;;;;15.57;100.00;100531.97;5098576;28;20043;-65
2023/08/25 07:19:03;;;;;;;3.00;1.60;;;;;;;15.96;100.00;100538.53;5100326;28;20073;-65
2023/08/25 07:21:29;;;;;;;6.60;2.15;;;;;;;16.26;100.00;100526.56;5098670;28;20089;-68
2023/08/25 07:23:55;;;;;;;5.28;2.00;;;;;;;16.42;100.00;100536.63;5099760;28;20066;-66
2023/08/25 07:26:21;;;;;;;4.53;1.73;;;;;;;16.14;100.00;100537.50;5103992;28;20035;-70
2023/08/25 07:28:47;;;;;;;5.38;2.00;;;;;;;15.94;100.00;100529.78;5106265;28;20474;-67
2023/08/25 07:31:15;;;;;;;5.65;1.90;;;;;;;16.12;100.00;100520.63;5100060;28;20051;-67
2023/08/25 07:33:41;;;;;;;4.15;1.80;;;;;;;16.20;100.00;100523.78;5083676;28;20028;-67
2023/08/25 07:36:06;;;;;;;4.47;1.92;;;;;;;16.32;100.00;100536.47;5082677;28;20028;-66
2023/08/25 07:38:32;;;;;;;6.00;2.05;;;;;;;16.11;100.00;100478.25;5100210;28;20043;-66
2023/08/25 07:40:57;;;;;;;3.80;1.65;;;;;;;16.25;100.00;100531.19;5100229;28;20078;-66
2023/08/25 07:43:23;;;;;;;5.57;1.83;;;;;;;16.18;100.00;100531.31;5082972;28;20109;-66
2023/08/25 07:45:48;;;;;;;4.32;1.80;;;;;;;16.18;100.00;100533.22;5100423;28;20035;-66
2023/08/25 07:48:14;;;;;;;5.43;1.65;;;;;;;16.25;100.00;100536.59;5099537;28;20046;-66
2023/08/25 07:50:40;;;;;;;3.55;1.63;;;;;;;16.40;100.00;100536.91;5101289;28;20044;-67
2023/08/25 07:53:06;;;;;;;8.52;2.05;;;;;;;16.27;100.00;100534.50;5098932;28;20026;-66
2023/08/25 07:55:32;;;;;;;3.17;1.55;;;;;;;16.62;100.00;100528.03;5099737;28;20066;-66
2023/08/25 07:57:58;;;;;;;4.18;1.40;;;;;;;16.56;100.00;100526.31;5101033;28;20399;-66
2023/08/25 08:00:23;;;;;;;5.63;1.90;;;;;;;16.64;100.00;100531.34;5099634;28;20020;-66
2023/08/25 08:02:50;;;;;;;4.05;1.70;;;;;;;16.58;100.00;100529.59;5097876;28;20024;-66
2023/08/25 08:05:17;;;;;;;6.13;2.55;;;;;;;16.47;100.00;100522.34;5081055;28;20127;-67
2023/08/25 08:07:44;;;;;;;4.55;1.77;;;;;;;16.36;100.00;100527.59;5081464;28;20055;-67
2023/08/25 08:10:09;;;;;;;4.68;1.60;;;;;;;16.51;100.00;100529.75;5096872;28;20028;-67
2023/08/25 08:12:35;;;;;;;3.75;1.63;;;;;;;16.49;100.00;100517.47;5099053;28;20031;-66
2023/08/25 08:15:01;;;;;;;3.35;1.55;;;;;;;16.53;100.00;100510.50;5099172;28;20156;-67
2023/08/25 08:17:26;;;;;;;3.67;1.60;;;;;;;16.52;100.00;100515.09;5097510;28;20024;-67
2023/08/25 08:19:51;;;;;;;4.25;1.88;;;;;;;16.65;100.00;100509.38;5080531;28;20036;-66
2023/08/25 08:22:17;;;;;;;4.10;1.42;;;;;;;16.43;100.00;100505.72;5097037;28;20032;-67
2023/08/25 08:24:50;;;;;;;3.80;1.55;;;;;;;16.42;100.00;100513.06;5099119;28;20178;-66
2023/08/25 08:27:16;;;;;;;4.07;1.77;;;;;;;16.62;100.00;100511.72;5098516;28;20023;-66
2023/08/25 08:29:42;;;;;;;5.45;2.00;;;;;;;16.94;100.00;100511.19;5097263;28;20054;-66
2023/08/25 08:32:08;;;;;;;2.97;1.63;;;;;;;16.65;100.00;100503.09;5098710;28;20028;-67
2023/08/25 08:34:34;;;;;;;6.32;1.77;;;;;;;16.87;100.00;100506.75;5080958;28;20020;-67
2023/08/25 08:36:59;;;;;;;3.65;1.70;;;;;;;16.64;100.00;100507.69;5097520;28;20068;-69
2023/08/25 08:39:24;;;;;;;4.85;1.70;;;;;;;16.80;100.00;100497.13;5097103;28;20055;-67
2023/08/25 08:41:52;;;;;;;3.33;1.58;;;;;;;16.84;100.00;100509.13;5104307;28;20144;-67
2023/08/25 08:44:19;;;;;;;4.65;1.80;;;;;;;17.02;100.00;100506.16;5105458;28;20486;-67
2023/08/25 08:46:45;;;;;;;3.75;1.50;;;;;;;16.68;100.00;100502.59;5083062;28;20065;-67
2023/08/25 08:49:11;;;;;;;2.58;1.70;;;;;;;16.47;100.00;100500.63;5101014;28;20092;-66
2023/08/25 08:51:38;;;;;;;3.15;1.58;;;;;;;16.66;100.00;100499.31;5101352;28;20051;-68
2023/08/25 08:54:05;;;;;;;5.05;1.90;;;;;;;16.74;100.00;100504.31;5111823;28;20092;-66
2023/08/25 08:56:31;;;;;;;4.25;1.98;;;;;;;16.65;100.00;100481.34;5108510;28;20028;-66
2023/08/25 08:58:57;;;;;;;3.13;1.70;;;;;;;16.99;100.00;100493.06;5108271;28;20467;-66
2023/08/25 09:01:23;;;;;;;3.47;1.70;;;;;;;16.74;100.00;100498.91;5105579;28;20032;-66
2023/08/25 09:03:50;;;;;;;6.07;2.00;;;;;;;17.05;100.00;100497.53;5098145;28;20032;-66
2023/08/25 09:06:16;;;;;;;3.17;1.80;;;;;;;16.78;100.00;100493.81;5099709;28;20043;-67
2023/08/25 09:08:43;;;;;;;5.25;2.65;;;;;;;16.83;100.00;100488.47;5119857;28;20543;-66
2023/08/25 09:11:08;;;;;;;4.50;1.90;;;;;;;16.94;100.00;100489.44;5117884;28;20028;-67
2023/08/25 09:13:35;;;;;;;3.70;1.90;;;;;;;17.10;100.00;100483.97;5121007;28;20073;-67
2023/08/25 09:16:11;;;;;;;3.05;1.77;;;;;;;17.00;100.00;100488.47;5123225;28;20027;-69
2023/08/25 09:18:36;;;;;;;3.30;1.80;;;;;;;17.25;100.00;100496.97;5122582;28;20016;-67
2023/08/25 09:21:05;;;;;;;4.63;1.80;;;;;;;16.91;100.00;100469.84;5113672;28;20035;-68
2023/08/25 09:23:30;;;;;;;5.88;1.88;;;;;;;16.97;100.00;100495.22;5108814;28;20039;-68
2023/08/25 09:25:58;;;;;;;3.83;1.63;;;;;;;17.05;100.00;100500.25;5104093;28;20032;-68
2023/08/25 09:28:24;;;;;;;5.25;2.00;;;;;;;17.37;100.00;100494.13;5100255;28;20019;-67
2023/08/25 09:30:50;;;;;;;6.25;1.88;;;;;;;17.44;100.00;100505.66;5096653;28;20115;-68
2023/08/25 09:33:15;;;;;;;3.55;1.85;;;;;;;17.40;100.00;100500.97;5098056;28;20082;-69
2023/08/25 09:35:42;;;;;;;4.97;2.10;;;;;;;17.67;100.00;100506.50;5080478;28;20036;-66
2023/08/25 09:38:19;;;;;;;4.45;1.90;;;;;;;17.65;100.00;100495.88;5098015;28;20036;-71
2023/08/25 09:40:46;;;;;;;4.22;2.00;;;;;;;17.38;100.00;100488.47;5097036;28;20037;-72
2023/08/25 09:43:11;;;;;;;4.20;2.03;;;;;;;17.52;100.00;100496.25;5097575;28;20020;-72
2023/08/25 09:45:39;;;;;;;5.68;1.95;;;;;;;17.59;100.00;100499.59;5100854;28;20027;-70
2023/08/25 09:48:05;;;;;;;4.63;2.10;;;;;;;17.33;100.00;100504.69;5100745;28;20081;-69
2023/08/25 09:50:36;;;;;;;4.60;2.25;;;;;;;17.55;100.00;100506.63;5099801;28;20375;-69
2023/08/25 09:53:04;;;;;;;5.35;2.08;;;;;;;17.49;100.00;100504.91;5095571;28;20406;-69
2023/08/25 09:55:30;;;;;;;2.20;1.52;;;;;;;17.69;100.00;100501.63;5097509;28;20020;-69
2023/08/25 09:57:56;;;;;;;6.07;1.90;;;;;;;18.09;100.00;100501.28;5099586;28;20040;-69
2023/08/25 10:00:23;;;;;;;2.63;2.10;;;;;;;18.31;100.00;100493.91;5099079;28;20036;-69
2023/08/25 10:02:50;;;;;;;4.57;2.25;;;;;;;18.52;100.00;100502.25;5100603;28;20036;-69
2023/08/25 10:05:17;;;;;;;2.75;1.88;;;;;;;18.53;100.00;100468.47;5101141;28;20050;-69
2023/08/25 10:07:43;;;;;;;5.47;1.70;;;;;;;18.47;100.00;100488.56;5099519;28;20020;-69
2023/08/25 10:10:09;;;;;;;5.00;1.85;;;;;;;18.24;100.00;100485.09;5103339;28;20016;-69
2023/08/25 10:12:37;;;;;;;2.65;1.67;;;;;;;18.48;100.00;100485.59;5104315;28;20031;-69
2023/08/25 10:15:06;;;;;;;2.90;1.70;;;;;;;18.51;100.00;100482.34;5102624;28;20031;-69
2023/08/25 10:17:33;;;;;;;2.65;1.77;;;;;;;18.69;100.00;100493.94;5104525;28;20043;-69
2023/08/25 10:20:01;;;;;;;3.90;1.70;;;;;;;18.68;100.00;100498.56;5104731;28;20509;-69
2023/08/25 10:22:26;;;;;;;5.78;1.85;;;;;;;18.88;100.00;100492.47;5104626;28;20038;-69
2023/08/25 10:25:00;;;;;;;3.10;1.60;;;;;;;19.02;100.00;100492.84;5102881;28;20028;-70
2023/08/25 10:27:27;;;;;;;2.05;1.65;;;;;;;18.99;100.00;100498.81;5105228;28;20020;-69
2023/08/25 10:29:53;;;;;;;4.43;1.70;;;;;;;18.85;100.00;100492.19;5104538;28;20032;-69
2023/08/25 10:32:19;;;;;;;2.63;1.70;;;;;;;18.69;100.00;100489.31;5105959;28;20024;-68
2023/08/25 10:34:46;;;;;;;2.60;1.60;;;;;;;18.59;100.00;100491.94;5100445;28;20043;-69
2023/08/25 10:37:12;;;;;;;2.83;1.52;;;;;;;19.03;100.00;100486.28;5101959;28;20093;-69
2023/08/25 10:39:58;;;;;;;2.70;1.33;;;;;;;18.81;100.00;100486.44;5105895;28;20024;-69
2023/08/25 10:42:27;;;;;;;3.85;1.60;;;;;;;19.24;100.00;100490.81;5107374;28;20080;-69
2023/08/25 10:45:06;;;;;;;2.75;1.50;;;;;;;19.18;100.00;100494.59;5106136;28;20058;-69
2023/08/25 10:47:32;;;;;;;3.92;1.65;;;;;;;19.25;100.00;100475.25;5098904;28;20775;-69
2023/08/25 10:50:03;;;;;;;2.17;1.50;;;;;;;19.10;100.00;100478.69;5097484;28;20447;-69
2023/08/25 10:52:29;;;;;;;3.00;1.55;;;;;;;19.23;100.00;100483.69;5106114;28;20048;-70
2023/08/25 10:54:55;;;;;;;2.45;1.40;;;;;;;19.00;100.00;100482.19;5087632;28;20100;-68
2023/08/25 10:57:41;;;;;;;2.83;1.30;;;;;;;19.38;100.00;100490.31;5106565;28;20056;-70
2023/08/25 11:00:30;;;;;;;3.42;1.50;;;;;;;19.15;100.00;100495.09;5106224;28;20036;-68
2023/08/25 11:02:57;;;;;;;3.17;1.40;;;;;;;19.15;100.00;100486.94;5105584;28;20054;-69
2023/08/25 11:05:34;;;;;;;1.98;1.60;;;;;;;19.24;100.00;100493.53;5102080;28;20016;-69
2023/08/25 11:08:05;;;;;;;2.40;1.50;;;;;;;19.27;100.00;100494.06;5100183;28;20039;-69
2023/08/25 11:10:35;;;;;;;4.57;1.50;;;;;;;19.33;100.00;100487.56;5101479;28;20024;-70
2023/08/25 11:13:07;;;;;;;3.88;1.70;;;;;;;19.59;100.00;100496.69;5102592;28;20028;-69
2023/08/25 11:15:35;;;;;;;2.40;1.58;;;;;;;19.44;100.00;100498.28;5102303;28;20121;-69